sensor_id;sensor_type;location;lat;lon;timestamp;pressure;altitude;pressure_sealevel;temperature;humidity
56070;BME280;41944;52.078;-0.058;2023-11-19T00:00:37;100380.59;;;13.22;94.24
56070;BME280;41944;52.078;-0.058;2023-11-19T00:03:04;100372.01;;;13.22;93.74
56070;BME280;41944;52.078;-0.058;2023-11-19T00:05:30;100373.02;;;13.27;93.62
56070;BME280;41944;52.078;-0.058;2023-11-19T00:07:57;100373.33;;;13.24;93.89
56070;BME280;41944;52.078;-0.058;2023-11-19T00:10:24;100369.66;;;13.18;94.33
56070;BME280;41944;52.078;-0.058;2023-11-19T00:12:51;100362.90;;;13.22;94.15
56070;BME280;41944;52.078;-0.058;2023-11-19T00:15:18;100352.87;;;13.17;94.23
56070;BME280;41944;52.078;-0.058;2023-11-19T00:17:47;100343.07;;;13.15;94.36
56070;BME280;41944;52.078;-0.058;2023-11-19T00:20:15;100339.82;;;13.08;94.79
56070;BME280;41944;52.078;-0.058;2023-11-19T00:22:43;100332.65;;;13.13;94.49
56070;BME280;41944;52.078;-0.058;2023-11-19T00:25:10;100330.99;;;13.08;94.05
56070;BME280;41944;52.078;-0.058;2023-11-19T00:27:37;100327.85;;;13.06;94.18
56070;BME280;41944;52.078;-0.058;2023-11-19T00:30:06;100329.23;;;12.99;94.09
56070;BME280;41944;52.078;-0.058;2023-11-19T00:32:33;100331.91;;;12.99;93.86
56070;BME280;41944;52.078;-0.058;2023-11-19T00:35:00;100329.01;;;12.97;94.13
56070;BME280;41944;52.078;-0.058;2023-11-19T00:37:27;100331.29;;;12.93;94.07
56070;BME280;41944;52.078;-0.058;2023-11-19T00:39:54;100333.63;;;12.94;93.41
56070;BME280;41944;52.078;-0.058;2023-11-19T00:42:21;100335.37;;;12.96;93.11
56070;BME280;41944;52.078;-0.058;2023-11-19T00:44:48;100339.64;;;12.95;92.81
56070;BME280;41944;52.078;-0.058;2023-11-19T00:47:14;100342.58;;;12.93;92.98
56070;BME280;41944;52.078;-0.058;2023-11-19T00:49:42;100339.12;;;12.91;93.05
56070;BME280;41944;52.078;-0.058;2023-11-19T00:52:09;100334.45;;;12.95;92.45
56070;BME280;41944;52.078;-0.058;2023-11-19T00:54:36;100340.72;;;12.94;92.90
56070;BME280;41944;52.078;-0.058;2023-11-19T00:57:04;100340.79;;;12.93;93.12
56070;BME280;41944;52.078;-0.058;2023-11-19T00:59:30;100338.12;;;12.93;93.26
56070;BME280;41944;52.078;-0.058;2023-11-19T01:01:57;100334.99;;;12.98;92.20
56070;BME280;41944;52.078;-0.058;2023-11-19T01:04:24;100333.89;;;12.95;92.40
56070;BME280;41944;52.078;-0.058;2023-11-19T01:06:51;100338.78;;;12.94;92.48
56070;BME280;41944;52.078;-0.058;2023-11-19T01:09:18;100340.57;;;12.90;93.11
56070;BME280;41944;52.078;-0.058;2023-11-19T01:11:45;100334.78;;;12.92;92.68
56070;BME280;41944;52.078;-0.058;2023-11-19T01:14:12;100340.84;;;12.94;92.90
56070;BME280;41944;52.078;-0.058;2023-11-19T01:16:39;100336.02;;;12.95;92.41
56070;BME280;41944;52.078;-0.058;2023-11-19T01:19:06;100336.73;;;12.92;92.15
56070;BME280;41944;52.078;-0.058;2023-11-19T01:21:33;100330.55;;;12.91;92.30
56070;BME280;41944;52.078;-0.058;2023-11-19T01:24:00;100330.79;;;12.90;92.71
56070;BME280;41944;52.078;-0.058;2023-11-19T01:26:27;100317.58;;;12.86;92.68
56070;BME280;41944;52.078;-0.058;2023-11-19T01:28:55;100312.71;;;12.82;93.13
56070;BME280;41944;52.078;-0.058;2023-11-19T01:31:22;100312.37;;;12.84;92.84
56070;BME280;41944;52.078;-0.058;2023-11-19T01:33:49;100313.07;;;12.85;93.13
56070;BME280;41944;52.078;-0.058;2023-11-19T01:36:15;100319.11;;;12.87;92.87
56070;BME280;41944;52.078;-0.058;2023-11-19T01:38:42;100313.00;;;12.86;93.02
56070;BME280;41944;52.078;-0.058;2023-11-19T01:41:10;100316.40;;;12.85;93.11
56070;BME280;41944;52.078;-0.058;2023-11-19T01:43:38;100318.24;;;12.82;93.50
56070;BME280;41944;52.078;-0.058;2023-11-19T01:46:06;100326.08;;;12.85;93.07
56070;BME280;41944;52.078;-0.058;2023-11-19T01:48:34;100328.04;;;12.81;93.48
56070;BME280;41944;52.078;-0.058;2023-11-19T01:51:01;100320.48;;;12.79;94.22
56070;BME280;41944;52.078;-0.058;2023-11-19T01:53:30;100313.63;;;12.83;93.35
56070;BME280;41944;52.078;-0.058;2023-11-19T01:55:57;100321.13;;;12.82;92.91
56070;BME280;41944;52.078;-0.058;2023-11-19T01:58:25;100324.29;;;12.83;93.36
56070;BME280;41944;52.078;-0.058;2023-11-19T02:00:53;100318.41;;;12.77;93.69
56070;BME280;41944;52.078;-0.058;2023-11-19T02:03:21;100318.75;;;12.77;93.88
56070;BME280;41944;52.078;-0.058;2023-11-19T02:05:49;100326.99;;;12.82;93.22
56070;BME280;41944;52.078;-0.058;2023-11-19T02:08:16;100332.71;;;12.79;92.88
56070;BME280;41944;52.078;-0.058;2023-11-19T02:10:44;100329.91;;;12.85;93.03
56070;BME280;41944;52.078;-0.058;2023-11-19T02:13:11;100323.78;;;12.81;93.15
56070;BME280;41944;52.078;-0.058;2023-11-19T02:15:37;100325.30;;;12.82;93.05
56070;BME280;41944;52.078;-0.058;2023-11-19T02:18:21;100321.63;;;12.85;92.86
56070;BME280;41944;52.078;-0.058;2023-11-19T02:20:49;100318.34;;;12.84;92.74
56070;BME280;41944;52.078;-0.058;2023-11-19T02:23:18;100308.49;;;12.82;93.53
56070;BME280;41944;52.078;-0.058;2023-11-19T02:25:51;100304.65;;;12.84;93.03
56070;BME280;41944;52.078;-0.058;2023-11-19T02:28:21;100302.59;;;12.80;92.95
56070;BME280;41944;52.078;-0.058;2023-11-19T02:30:48;100310.07;;;12.75;93.11
56070;BME280;41944;52.078;-0.058;2023-11-19T02:33:15;100309.72;;;12.71;93.30
56070;BME280;41944;52.078;-0.058;2023-11-19T02:35:43;100299.25;;;12.71;93.42
56070;BME280;41944;52.078;-0.058;2023-11-19T02:38:10;100310.96;;;12.66;93.10
56070;BME280;41944;52.078;-0.058;2023-11-19T02:40:37;100321.99;;;12.61;93.18
56070;BME280;41944;52.078;-0.058;2023-11-19T02:43:04;100316.23;;;12.65;93.02
56070;BME280;41944;52.078;-0.058;2023-11-19T02:45:32;100306.50;;;12.65;93.49
56070;BME280;41944;52.078;-0.058;2023-11-19T02:47:59;100300.46;;;12.69;93.38
56070;BME280;41944;52.078;-0.058;2023-11-19T02:50:26;100299.97;;;12.69;93.14
56070;BME280;41944;52.078;-0.058;2023-11-19T02:52:55;100300.81;;;12.70;93.18
56070;BME280;41944;52.078;-0.058;2023-11-19T02:55:23;100305.01;;;12.68;93.09
56070;BME280;41944;52.078;-0.058;2023-11-19T02:57:51;100297.79;;;12.68;92.94
56070;BME280;41944;52.078;-0.058;2023-11-19T03:00:20;100299.83;;;12.64;93.17
56070;BME280;41944;52.078;-0.058;2023-11-19T03:02:48;100285.69;;;12.63;93.01
56070;BME280;41944;52.078;-0.058;2023-11-19T03:05:15;100284.76;;;12.63;93.02
56070;BME280;41944;52.078;-0.058;2023-11-19T03:07:43;100289.50;;;12.59;93.22
56070;BME280;41944;52.078;-0.058;2023-11-19T03:10:10;100287.20;;;12.57;93.83
56070;BME280;41944;52.078;-0.058;2023-11-19T03:12:38;100283.65;;;12.55;93.75
56070;BME280;41944;52.078;-0.058;2023-11-19T03:15:05;100291.76;;;12.58;93.42
56070;BME280;41944;52.078;-0.058;2023-11-19T03:17:33;100290.31;;;12.57;93.05
56070;BME280;41944;52.078;-0.058;2023-11-19T03:20:00;100284.37;;;12.54;93.42
56070;BME280;41944;52.078;-0.058;2023-11-19T03:22:27;100278.06;;;12.54;93.49
56070;BME280;41944;52.078;-0.058;2023-11-19T03:24:54;100282.80;;;12.56;92.81
56070;BME280;41944;52.078;-0.058;2023-11-19T03:27:21;100296.60;;;12.57;92.74
56070;BME280;41944;52.078;-0.058;2023-11-19T03:29:48;100304.40;;;12.55;93.20
56070;BME280;41944;52.078;-0.058;2023-11-19T03:32:15;100310.47;;;12.55;93.51
56070;BME280;41944;52.078;-0.058;2023-11-19T03:34:42;100314.91;;;12.54;93.81
56070;BME280;41944;52.078;-0.058;2023-11-19T03:37:09;100305.16;;;12.57;93.44
56070;BME280;41944;52.078;-0.058;2023-11-19T03:39:37;100305.27;;;12.57;93.27
56070;BME280;41944;52.078;-0.058;2023-11-19T03:42:04;100309.30;;;12.58;92.74
56070;BME280;41944;52.078;-0.058;2023-11-19T03:44:31;100315.86;;;12.60;93.32
56070;BME280;41944;52.078;-0.058;2023-11-19T03:46:58;100310.08;;;12.70;92.60
56070;BME280;41944;52.078;-0.058;2023-11-19T03:49:25;100299.24;;;12.70;92.41
56070;BME280;41944;52.078;-0.058;2023-11-19T03:51:52;100302.50;;;12.77;92.01
56070;BME280;41944;52.078;-0.058;2023-11-19T03:54:19;100303.89;;;12.79;92.21
56070;BME280;41944;52.078;-0.058;2023-11-19T03:56:46;100298.78;;;12.85;91.78
56070;BME280;41944;52.078;-0.058;2023-11-19T03:59:13;100294.06;;;12.87;91.59
56070;BME280;41944;52.078;-0.058;2023-11-19T04:01:40;100296.27;;;12.92;91.18
56070;BME280;41944;52.078;-0.058;2023-11-19T04:04:07;100284.18;;;12.88;90.97
56070;BME280;41944;52.078;-0.058;2023-11-19T04:06:34;100290.50;;;12.90;90.94
56070;BME280;41944;52.078;-0.058;2023-11-19T04:09:01;100290.67;;;12.86;91.08
56070;BME280;41944;52.078;-0.058;2023-11-19T04:11:28;100288.03;;;12.87;90.65
56070;BME280;41944;52.078;-0.058;2023-11-19T04:13:55;100286.49;;;12.83;90.99
56070;BME280;41944;52.078;-0.058;2023-11-19T04:16:26;100286.57;;;12.82;91.13
56070;BME280;41944;52.078;-0.058;2023-11-19T04:18:54;100276.89;;;12.84;91.53
56070;BME280;41944;52.078;-0.058;2023-11-19T04:21:21;100274.46;;;12.88;91.21
56070;BME280;41944;52.078;-0.058;2023-11-19T04:23:48;100271.36;;;12.87;91.15
56070;BME280;41944;52.078;-0.058;2023-11-19T04:26:15;100279.48;;;12.90;91.39
56070;BME280;41944;52.078;-0.058;2023-11-19T04:28:42;100284.26;;;12.93;90.83
56070;BME280;41944;52.078;-0.058;2023-11-19T04:31:10;100291.48;;;12.91;91.22
56070;BME280;41944;52.078;-0.058;2023-11-19T04:33:37;100283.40;;;12.94;90.89
56070;BME280;41944;52.078;-0.058;2023-11-19T04:36:06;100274.33;;;12.86;91.31
56070;BME280;41944;52.078;-0.058;2023-11-19T04:38:32;100278.16;;;12.94;90.67
56070;BME280;41944;52.078;-0.058;2023-11-19T04:41:00;100287.00;;;12.95;90.10
56070;BME280;41944;52.078;-0.058;2023-11-19T04:43:27;100284.27;;;12.89;90.18
56070;BME280;41944;52.078;-0.058;2023-11-19T04:45:54;100283.70;;;12.91;89.73
56070;BME280;41944;52.078;-0.058;2023-11-19T04:48:21;100281.50;;;12.85;90.10
56070;BME280;41944;52.078;-0.058;2023-11-19T04:50:48;100277.26;;;12.84;89.62
56070;BME280;41944;52.078;-0.058;2023-11-19T04:53:16;100277.29;;;12.85;90.20
56070;BME280;41944;52.078;-0.058;2023-11-19T04:55:43;100270.68;;;12.87;90.36
56070;BME280;41944;52.078;-0.058;2023-11-19T04:58:10;100278.30;;;12.87;89.79
56070;BME280;41944;52.078;-0.058;2023-11-19T05:00:37;100278.33;;;12.85;89.58
56070;BME280;41944;52.078;-0.058;2023-11-19T05:03:04;100274.83;;;12.85;89.74
56070;BME280;41944;52.078;-0.058;2023-11-19T05:05:31;100276.74;;;12.81;89.68
56070;BME280;41944;52.078;-0.058;2023-11-19T05:07:58;100276.90;;;12.84;89.19
56070;BME280;41944;52.078;-0.058;2023-11-19T05:10:24;100275.53;;;12.78;89.52
56070;BME280;41944;52.078;-0.058;2023-11-19T05:12:51;100264.61;;;12.70;90.27
56070;BME280;41944;52.078;-0.058;2023-11-19T05:15:18;100267.77;;;12.68;90.35
56070;BME280;41944;52.078;-0.058;2023-11-19T05:17:45;100271.97;;;12.68;90.84
56070;BME280;41944;52.078;-0.058;2023-11-19T05:20:12;100262.52;;;12.65;90.35
56070;BME280;41944;52.078;-0.058;2023-11-19T05:22:40;100276.67;;;12.57;91.04
56070;BME280;41944;52.078;-0.058;2023-11-19T05:25:08;100275.12;;;12.55;91.55
56070;BME280;41944;52.078;-0.058;2023-11-19T05:27:36;100281.77;;;12.48;92.04
56070;BME280;41944;52.078;-0.058;2023-11-19T05:30:04;100280.38;;;12.47;91.97
56070;BME280;41944;52.078;-0.058;2023-11-19T05:32:32;100282.83;;;12.47;92.34
56070;BME280;41944;52.078;-0.058;2023-11-19T05:34:59;100286.05;;;12.45;92.53
56070;BME280;41944;52.078;-0.058;2023-11-19T05:37:26;100280.91;;;12.52;92.39
56070;BME280;41944;52.078;-0.058;2023-11-19T05:39:53;100283.09;;;12.53;92.35
56070;BME280;41944;52.078;-0.058;2023-11-19T05:42:20;100286.98;;;12.55;92.31
56070;BME280;41944;52.078;-0.058;2023-11-19T05:44:47;100290.92;;;12.58;92.12
56070;BME280;41944;52.078;-0.058;2023-11-19T05:47:14;100281.93;;;12.60;92.35
56070;BME280;41944;52.078;-0.058;2023-11-19T05:49:41;100286.42;;;12.63;92.51
56070;BME280;41944;52.078;-0.058;2023-11-19T05:52:08;100290.19;;;12.64;92.54
56070;BME280;41944;52.078;-0.058;2023-11-19T05:54:35;100284.87;;;12.68;92.49
56070;BME280;41944;52.078;-0.058;2023-11-19T05:57:02;100287.56;;;12.74;91.49
56070;BME280;41944;52.078;-0.058;2023-11-19T05:59:30;100277.41;;;12.69;91.78
56070;BME280;41944;52.078;-0.058;2023-11-19T06:01:57;100281.73;;;12.72;91.64
56070;BME280;41944;52.078;-0.058;2023-11-19T06:04:25;100278.86;;;12.76;91.15
56070;BME280;41944;52.078;-0.058;2023-11-19T06:06:52;100283.55;;;12.72;91.25
56070;BME280;41944;52.078;-0.058;2023-11-19T06:09:19;100297.31;;;12.76;91.04
56070;BME280;41944;52.078;-0.058;2023-11-19T06:11:46;100295.37;;;12.74;91.32
56070;BME280;41944;52.078;-0.058;2023-11-19T06:14:13;100290.65;;;12.74;91.82
56070;BME280;41944;52.078;-0.058;2023-11-19T06:16:40;100294.20;;;12.75;92.01
56070;BME280;41944;52.078;-0.058;2023-11-19T06:19:07;100292.39;;;12.69;91.93
56070;BME280;41944;52.078;-0.058;2023-11-19T06:21:34;100287.54;;;12.62;92.53
56070;BME280;41944;52.078;-0.058;2023-11-19T06:24:01;100289.85;;;12.68;92.44
56070;BME280;41944;52.078;-0.058;2023-11-19T06:26:28;100289.56;;;12.61;92.74
56070;BME280;41944;52.078;-0.058;2023-11-19T06:28:54;100291.64;;;12.56;92.72
56070;BME280;41944;52.078;-0.058;2023-11-19T06:31:22;100292.54;;;12.50;93.31
56070;BME280;41944;52.078;-0.058;2023-11-19T06:33:49;100296.06;;;12.46;93.27
56070;BME280;41944;52.078;-0.058;2023-11-19T06:36:16;100293.66;;;12.43;93.03
56070;BME280;41944;52.078;-0.058;2023-11-19T06:38:43;100296.04;;;12.44;93.16
56070;BME280;41944;52.078;-0.058;2023-11-19T06:41:11;100293.25;;;12.40;93.59
56070;BME280;41944;52.078;-0.058;2023-11-19T06:43:38;100297.40;;;12.38;93.38
56070;BME280;41944;52.078;-0.058;2023-11-19T06:46:05;100287.62;;;12.34;93.75
56070;BME280;41944;52.078;-0.058;2023-11-19T06:48:32;100289.50;;;12.38;93.43
56070;BME280;41944;52.078;-0.058;2023-11-19T06:51:00;100291.53;;;12.35;93.62
56070;BME280;41944;52.078;-0.058;2023-11-19T06:53:27;100290.53;;;12.30;93.84
56070;BME280;41944;52.078;-0.058;2023-11-19T06:55:54;100297.34;;;12.27;94.09
56070;BME280;41944;52.078;-0.058;2023-11-19T06:58:21;100295.83;;;12.28;94.23
56070;BME280;41944;52.078;-0.058;2023-11-19T07:00:48;100302.48;;;12.31;94.18
56070;BME280;41944;52.078;-0.058;2023-11-19T07:03:15;100303.38;;;12.34;93.89
56070;BME280;41944;52.078;-0.058;2023-11-19T07:05:42;100305.89;;;12.32;93.86
56070;BME280;41944;52.078;-0.058;2023-11-19T07:08:09;100301.46;;;12.31;93.69
56070;BME280;41944;52.078;-0.058;2023-11-19T07:10:37;100300.97;;;12.36;93.39
56070;BME280;41944;52.078;-0.058;2023-11-19T07:13:04;100310.57;;;12.32;93.87
56070;BME280;41944;52.078;-0.058;2023-11-19T07:15:31;100303.35;;;12.38;93.30
56070;BME280;41944;52.078;-0.058;2023-11-19T07:17:58;100301.58;;;12.36;93.22
56070;BME280;41944;52.078;-0.058;2023-11-19T07:20:24;100296.77;;;12.37;93.39
56070;BME280;41944;52.078;-0.058;2023-11-19T07:22:51;100293.52;;;12.46;93.44
56070;BME280;41944;52.078;-0.058;2023-11-19T07:25:18;100290.04;;;12.44;93.67
56070;BME280;41944;52.078;-0.058;2023-11-19T07:27:45;100282.33;;;12.45;93.91
56070;BME280;41944;52.078;-0.058;2023-11-19T07:30:12;100279.52;;;12.44;94.20
56070;BME280;41944;52.078;-0.058;2023-11-19T07:32:38;100284.16;;;12.47;94.27
56070;BME280;41944;52.078;-0.058;2023-11-19T07:35:06;100280.39;;;12.50;94.02
56070;BME280;41944;52.078;-0.058;2023-11-19T07:37:33;100274.72;;;12.50;93.62
56070;BME280;41944;52.078;-0.058;2023-11-19T07:40:00;100281.67;;;12.48;93.89
56070;BME280;41944;52.078;-0.058;2023-11-19T07:42:27;100286.26;;;12.45;93.45
56070;BME280;41944;52.078;-0.058;2023-11-19T07:44:54;100287.27;;;12.54;92.53
56070;BME280;41944;52.078;-0.058;2023-11-19T07:47:20;100293.33;;;12.53;92.73
56070;BME280;41944;52.078;-0.058;2023-11-19T07:49:48;100292.62;;;12.53;92.20
56070;BME280;41944;52.078;-0.058;2023-11-19T07:52:15;100290.00;;;12.53;91.36
56070;BME280;41944;52.078;-0.058;2023-11-19T07:54:42;100291.52;;;12.54;91.47
56070;BME280;41944;52.078;-0.058;2023-11-19T07:57:09;100297.39;;;12.52;91.65
56070;BME280;41944;52.078;-0.058;2023-11-19T07:59:36;100303.74;;;12.53;91.61
56070;BME280;41944;52.078;-0.058;2023-11-19T08:02:03;100304.58;;;12.62;90.80
56070;BME280;41944;52.078;-0.058;2023-11-19T08:04:30;100302.40;;;12.61;90.90
56070;BME280;41944;52.078;-0.058;2023-11-19T08:06:57;100303.90;;;12.63;90.68
56070;BME280;41944;52.078;-0.058;2023-11-19T08:09:24;100303.71;;;12.67;90.64
56070;BME280;41944;52.078;-0.058;2023-11-19T08:11:51;100305.76;;;12.75;90.56
56070;BME280;41944;52.078;-0.058;2023-11-19T08:14:18;100308.38;;;12.80;90.02
56070;BME280;41944;52.078;-0.058;2023-11-19T08:16:45;100311.44;;;12.85;88.70
56070;BME280;41944;52.078;-0.058;2023-11-19T08:19:12;100308.27;;;12.81;88.29
56070;BME280;41944;52.078;-0.058;2023-11-19T08:21:39;100309.66;;;12.84;88.78
56070;BME280;41944;52.078;-0.058;2023-11-19T08:24:06;100319.83;;;12.85;87.95
56070;BME280;41944;52.078;-0.058;2023-11-19T08:26:33;100321.52;;;12.83;87.49
56070;BME280;41944;52.078;-0.058;2023-11-19T08:29:00;100317.05;;;12.79;87.49
56070;BME280;41944;52.078;-0.058;2023-11-19T08:31:27;100332.80;;;12.76;88.17
56070;BME280;41944;52.078;-0.058;2023-11-19T08:33:54;100321.45;;;12.78;87.87
56070;BME280;41944;52.078;-0.058;2023-11-19T08:36:21;100310.51;;;12.71;88.29
56070;BME280;41944;52.078;-0.058;2023-11-19T08:38:48;100317.20;;;12.71;87.71
56070;BME280;41944;52.078;-0.058;2023-11-19T08:41:16;100315.42;;;12.76;87.88
56070;BME280;41944;52.078;-0.058;2023-11-19T08:43:43;100319.70;;;12.79;87.82
56070;BME280;41944;52.078;-0.058;2023-11-19T08:46:10;100330.14;;;12.82;87.55
56070;BME280;41944;52.078;-0.058;2023-11-19T08:48:38;100333.03;;;12.82;87.46
56070;BME280;41944;52.078;-0.058;2023-11-19T08:51:05;100330.77;;;12.89;87.27
56070;BME280;41944;52.078;-0.058;2023-11-19T08:53:32;100328.20;;;12.87;87.75
56070;BME280;41944;52.078;-0.058;2023-11-19T08:55:59;100331.51;;;12.93;87.32
56070;BME280;41944;52.078;-0.058;2023-11-19T08:58:26;100332.04;;;12.97;87.84
56070;BME280;41944;52.078;-0.058;2023-11-19T09:00:53;100332.61;;;12.99;87.81
56070;BME280;41944;52.078;-0.058;2023-11-19T09:03:20;100332.86;;;13.02;87.63
56070;BME280;41944;52.078;-0.058;2023-11-19T09:05:47;100330.87;;;13.03;87.96
56070;BME280;41944;52.078;-0.058;2023-11-19T09:08:14;100326.50;;;13.06;88.14
56070;BME280;41944;52.078;-0.058;2023-11-19T09:10:41;100326.98;;;13.04;88.66
56070;BME280;41944;52.078;-0.058;2023-11-19T09:13:08;100322.52;;;13.05;88.95
56070;BME280;41944;52.078;-0.058;2023-11-19T09:15:35;100324.67;;;13.05;88.82
56070;BME280;41944;52.078;-0.058;2023-11-19T09:18:02;100321.87;;;12.99;89.46
56070;BME280;41944;52.078;-0.058;2023-11-19T09:20:30;100328.83;;;13.04;89.10
56070;BME280;41944;52.078;-0.058;2023-11-19T09:22:56;100323.98;;;13.04;88.39
56070;BME280;41944;52.078;-0.058;2023-11-19T09:25:23;100323.32;;;12.98;88.58
56070;BME280;41944;52.078;-0.058;2023-11-19T09:27:50;100330.02;;;13.00;88.56
56070;BME280;41944;52.078;-0.058;2023-11-19T09:30:17;100328.20;;;13.01;88.93
56070;BME280;41944;52.078;-0.058;2023-11-19T09:32:44;100326.50;;;13.02;88.64
56070;BME280;41944;52.078;-0.058;2023-11-19T09:35:10;100324.81;;;13.10;87.96
56070;BME280;41944;52.078;-0.058;2023-11-19T09:37:37;100314.06;;;13.05;88.20
56070;BME280;41944;52.078;-0.058;2023-11-19T09:40:06;100310.16;;;13.08;88.39
56070;BME280;41944;52.078;-0.058;2023-11-19T09:42:40;100322.42;;;13.19;88.51
56070;BME280;41944;52.078;-0.058;2023-11-19T09:45:13;100314.34;;;13.32;87.72
56070;BME280;41944;52.078;-0.058;2023-11-19T09:47:42;100320.33;;;13.34;87.77
56070;BME280;41944;52.078;-0.058;2023-11-19T09:50:12;100318.93;;;13.41;87.85
56070;BME280;41944;52.078;-0.058;2023-11-19T09:52:41;100322.09;;;13.45;87.64
56070;BME280;41944;52.078;-0.058;2023-11-19T09:55:09;100318.16;;;13.44;87.40
56070;BME280;41944;52.078;-0.058;2023-11-19T09:57:38;100300.91;;;13.40;87.97
56070;BME280;41944;52.078;-0.058;2023-11-19T10:00:07;100311.04;;;13.40;87.74
56070;BME280;41944;52.078;-0.058;2023-11-19T10:02:34;100312.44;;;13.51;87.88
56070;BME280;41944;52.078;-0.058;2023-11-19T10:05:05;100306.62;;;13.58;87.06
56070;BME280;41944;52.078;-0.058;2023-11-19T10:07:34;100301.87;;;13.68;87.24
56070;BME280;41944;52.078;-0.058;2023-11-19T10:10:01;100306.54;;;13.74;86.51
56070;BME280;41944;52.078;-0.058;2023-11-19T10:12:29;100301.00;;;13.83;85.88
56070;BME280;41944;52.078;-0.058;2023-11-19T10:14:57;100292.18;;;13.89;85.15
56070;BME280;41944;52.078;-0.058;2023-11-19T10:17:27;100293.09;;;13.97;85.12
56070;BME280;41944;52.078;-0.058;2023-11-19T10:19:54;100290.82;;;14.00;85.29
56070;BME280;41944;52.078;-0.058;2023-11-19T10:22:23;100293.06;;;13.96;85.02
56070;BME280;41944;52.078;-0.058;2023-11-19T10:24:50;100294.82;;;13.95;85.57
56070;BME280;41944;52.078;-0.058;2023-11-19T10:27:17;100292.38;;;13.96;85.41
56070;BME280;41944;52.078;-0.058;2023-11-19T10:29:45;100286.41;;;13.98;85.72
56070;BME280;41944;52.078;-0.058;2023-11-19T10:32:12;100292.67;;;13.99;84.82
56070;BME280;41944;52.078;-0.058;2023-11-19T10:34:39;100288.11;;;13.97;84.56
56070;BME280;41944;52.078;-0.058;2023-11-19T10:37:07;100293.63;;;13.92;84.67
56070;BME280;41944;52.078;-0.058;2023-11-19T10:39:52;100285.55;;;13.89;85.60
56070;BME280;41944;52.078;-0.058;2023-11-19T10:42:20;100285.13;;;13.96;85.49
56070;BME280;41944;52.078;-0.058;2023-11-19T10:44:47;100288.91;;;13.98;85.96
56070;BME280;41944;52.078;-0.058;2023-11-19T10:47:15;100282.80;;;14.01;85.56
56070;BME280;41944;52.078;-0.058;2023-11-19T10:49:41;100284.99;;;14.05;85.28
56070;BME280;41944;52.078;-0.058;2023-11-19T10:52:09;100288.28;;;14.06;85.00
56070;BME280;41944;52.078;-0.058;2023-11-19T10:54:37;100282.10;;;14.09;84.88
56070;BME280;41944;52.078;-0.058;2023-11-19T10:57:12;100279.75;;;14.02;85.41
56070;BME280;41944;52.078;-0.058;2023-11-19T10:59:45;100279.39;;;14.04;85.34
56070;BME280;41944;52.078;-0.058;2023-11-19T11:02:17;100283.11;;;14.07;85.59
56070;BME280;41944;52.078;-0.058;2023-11-19T11:04:47;100280.83;;;14.19;85.27
56070;BME280;41944;52.078;-0.058;2023-11-19T11:07:21;100277.71;;;14.28;85.33
56070;BME280;41944;52.078;-0.058;2023-11-19T11:09:49;100272.53;;;14.42;85.34
56070;BME280;41944;52.078;-0.058;2023-11-19T11:12:18;100277.72;;;14.54;85.04
56070;BME280;41944;52.078;-0.058;2023-11-19T11:14:49;100276.04;;;14.67;84.17
56070;BME280;41944;52.078;-0.058;2023-11-19T11:17:17;100274.52;;;14.70;83.47
56070;BME280;41944;52.078;-0.058;2023-11-19T11:19:44;100273.89;;;14.71;83.33
56070;BME280;41944;52.078;-0.058;2023-11-19T11:22:12;100263.35;;;14.63;83.31
56070;BME280;41944;52.078;-0.058;2023-11-19T11:24:56;100261.69;;;14.62;83.25
56070;BME280;41944;52.078;-0.058;2023-11-19T11:27:49;100260.46;;;14.60;82.91
56070;BME280;41944;52.078;-0.058;2023-11-19T11:30:29;100254.28;;;14.63;82.67
56070;BME280;41944;52.078;-0.058;2023-11-19T11:33:10;100244.22;;;14.62;82.55
56070;BME280;41944;52.078;-0.058;2023-11-19T11:35:49;100240.44;;;14.70;83.00
56070;BME280;41944;52.078;-0.058;2023-11-19T11:38:22;100242.71;;;14.80;82.27
56070;BME280;41944;52.078;-0.058;2023-11-19T11:41:15;100233.88;;;14.72;81.66
56070;BME280;41944;52.078;-0.058;2023-11-19T11:43:44;100233.61;;;14.68;81.93
56070;BME280;41944;52.078;-0.058;2023-11-19T11:46:53;100229.04;;;14.64;82.38
56070;BME280;41944;52.078;-0.058;2023-11-19T11:49:28;100231.72;;;14.68;82.16
56070;BME280;41944;52.078;-0.058;2023-11-19T11:52:04;100229.14;;;14.70;82.70
56070;BME280;41944;52.078;-0.058;2023-11-19T11:54:31;100228.73;;;14.72;83.00
56070;BME280;41944;52.078;-0.058;2023-11-19T11:57:03;100222.98;;;14.83;83.41
56070;BME280;41944;52.078;-0.058;2023-11-19T11:59:45;100224.84;;;14.93;82.42
56070;BME280;41944;52.078;-0.058;2023-11-19T12:02:14;100223.65;;;14.92;82.77
56070;BME280;41944;52.078;-0.058;2023-11-19T12:04:42;100239.31;;;14.95;82.11
56070;BME280;41944;52.078;-0.058;2023-11-19T12:07:13;100218.97;;;15.00;82.77
56070;BME280;41944;52.078;-0.058;2023-11-19T12:09:40;100220.96;;;15.06;81.75
56070;BME280;41944;52.078;-0.058;2023-11-19T12:12:17;100222.56;;;15.01;81.54
56070;BME280;41944;52.078;-0.058;2023-11-19T12:15:17;100217.05;;;15.03;82.48
56070;BME280;41944;52.078;-0.058;2023-11-19T12:17:48;100228.37;;;15.05;82.16
56070;BME280;41944;52.078;-0.058;2023-11-19T12:20:16;100222.85;;;15.08;81.72
56070;BME280;41944;52.078;-0.058;2023-11-19T12:22:45;100223.74;;;15.07;82.18
56070;BME280;41944;52.078;-0.058;2023-11-19T12:25:13;100214.00;;;15.03;81.97
56070;BME280;41944;52.078;-0.058;2023-11-19T12:27:41;100205.79;;;15.00;82.44
56070;BME280;41944;52.078;-0.058;2023-11-19T12:30:10;100208.64;;;14.90;82.11
56070;BME280;41944;52.078;-0.058;2023-11-19T12:32:39;100208.75;;;14.85;82.69
56070;BME280;41944;52.078;-0.058;2023-11-19T12:35:07;100201.74;;;14.83;83.36
56070;BME280;41944;52.078;-0.058;2023-11-19T12:37:39;100199.76;;;14.75;83.62
56070;BME280;41944;52.078;-0.058;2023-11-19T12:40:12;100194.97;;;14.73;84.45
56070;BME280;41944;52.078;-0.058;2023-11-19T12:42:39;100194.85;;;14.73;84.38
56070;BME280;41944;52.078;-0.058;2023-11-19T12:45:06;100185.40;;;14.75;84.39